Time;durP1;ratioP1;P1;durP2;ratioP2;P2;SDS_P1;SDS_P2;PMS_P1;PMS_P2;Temp;Humidity;BMP_temperature;BMP_pressure;BME280_temperature;BME280_humidity;BME280_pressure;Samples;Min_cycle;Max_cycle;Signal;HPM_P1;HPM_P2
2021/04/21 00:01:31;;;;;;;32.27;26.70;;;11.20;73.60;;;;;;4962587;28;20433;-89
2021/04/21 00:03:58;;;;;;;33.60;28.23;;;11.10;73.70;;;;;;4980486;28;20414;-89
2021/04/21 00:06:24;;;;;;;35.25;29.73;;;8.70;68.90;;;;;;4961417;28;20432;-89
2021/04/21 00:08:50;;;;;;;32.43;28.90;;;7.90;70.70;;;;;;4977658;28;20580;-88
2021/04/21 00:11:17;;;;;;;35.27;29.87;;;9.00;72.40;;;;;;4976393;28;20411;-89
2021/04/21 00:13:44;;;;;;;39.00;29.90;;;8.00;71.90;;;;;;4976370;28;20417;-89
2021/04/21 00:16:12;;;;;;;37.50;30.23;;;8.60;71.00;;;;;;4977096;28;20417;-89
2021/04/21 00:18:41;;;;;;;35.63;26.53;;;8.60;70.90;;;;;;4966318;28;20433;-89
2021/04/21 00:21:07;;;;;;;32.33;28.07;;;10.50;71.90;;;;;;4963390;28;20410;-89
2021/04/21 00:23:34;;;;;;;32.70;27.85;;;11.30;73.60;;;;;;4961621;28;20490;-89
2021/04/21 00:26:01;;;;;;;29.33;25.90;;;9.10;72.70;;;;;;4964055;28;20185;-89
2021/04/21 00:28:31;;;;;;;30.33;26.50;;;9.00;72.90;;;;;;4963420;28;20209;-89
2021/04/21 00:31:00;;;;;;;33.58;29.10;;;8.90;72.80;;;;;;4962274;28;20240;-89
2021/04/21 00:33:27;;;;;;;35.40;30.23;;;8.80;74.10;;;;;;4961831;28;20182;-89
2021/04/21 00:35:54;;;;;;;34.77;28.43;;;8.70;74.10;;;;;;4963720;28;20456;-89
2021/04/21 00:38:21;;;;;;;34.20;28.97;;;8.70;74.10;;;;;;4963066;28;20413;-89
2021/04/21 00:40:57;;;;;;;34.42;28.90;;;8.60;74.60;;;;;;4980747;28;20414;-89
2021/04/21 00:43:46;;;;;;;38.47;28.47;;;8.60;74.10;;;;;;4963571;28;20256;-89
2021/04/21 00:46:19;;;;;;;33.42;29.00;;;9.00;70.40;;;;;;4980697;28;20421;-89
2021/04/21 00:49:14;;;;;;;34.03;28.15;;;9.30;72.90;;;;;;4982193;28;20252;-89
2021/04/21 00:51:53;;;;;;;31.52;26.08;;;9.20;70.70;;;;;;4962055;28;20231;-89
2021/04/21 00:54:51;;;;;;;32.93;27.33;;;9.10;70.20;;;;;;4965030;28;20184;-88
2021/04/21 00:57:25;;;;;;;36.05;30.45;;;8.90;70.30;;;;;;4962535;28;20790;-89
2021/04/21 01:00:04;;;;;;;33.67;30.05;;;8.50;74.00;;;;;;4981888;28;20691;-87
2021/04/21 01:02:41;;;;;;;34.90;27.60;;;8.30;74.70;;;;;;4983598;28;20216;-89
2021/04/21 01:05:12;;;;;;;33.80;27.27;;;8.20;70.10;;;;;;4983142;28;20405;-89
2021/04/21 01:07:41;;;;;;;35.78;29.25;;;8.50;70.30;;;;;;4967908;28;20457;-89
2021/04/21 01:10:09;;;;;;;42.47;31.02;;;8.40;70.20;;;;;;4981152;28;20229;-88
2021/04/21 01:12:37;;;;;;;39.60;30.73;;;8.40;70.70;;;;;;5001736;28;20180;-89
2021/04/21 01:15:05;;;;;;;42.33;32.97;;;8.30;71.00;;;;;;5000880;28;20437;-89
2021/04/21 01:17:32;;;;;;;38.35;30.73;;;8.40;71.20;;;;;;4992813;28;20433;-89
2021/04/21 01:20:05;;;;;;;40.13;32.00;;;8.20;71.20;;;;;;4984567;28;20166;-89
2021/04/21 01:22:42;;;;;;;35.73;29.57;;;8.30;71.20;;;;;;4983070;28;20842;-89
2021/04/21 01:25:08;;;;;;;43.80;33.30;;;8.30;71.40;;;;;;4982405;28;21141;-89
2021/04/21 01:27:58;;;;;;;41.77;32.70;;;8.20;72.10;;;;;;4982458;28;20465;-88
2021/04/21 01:30:25;;;;;;;35.67;28.70;;;8.10;72.40;;;;;;4956647;28;20614;-90
2021/04/21 01:32:54;;;;;;;36.35;29.10;;;8.10;73.00;;;;;;4965307;28;20432;-89
2021/04/21 01:35:22;;;;;;;35.63;29.47;;;8.00;73.30;;;;;;4984061;28;20190;-89
2021/04/21 01:37:54;;;;;;;42.73;31.23;;;8.00;72.90;;;;;;4983030;28;20422;-89
2021/04/21 01:40:31;;;;;;;38.37;31.47;;;8.00;73.00;;;;;;4983084;28;20402;-89
2021/04/21 01:43:04;;;;;;;44.92;36.58;;;8.00;73.20;;;;;;4982806;28;20437;-90
2021/04/21 01:45:31;;;;;;;43.17;34.22;;;7.90;73.30;;;;;;4982519;28;20175;-89
2021/04/21 01:48:00;;;;;;;40.30;33.60;;;7.90;73.50;;;;;;4964593;28;20709;-89
2021/04/21 01:50:25;;;;;;;42.30;34.90;;;8.00;73.20;;;;;;4981757;28;20380;-89
2021/04/21 01:53:08;;;;;;;43.70;34.13;;;8.00;72.80;;;;;;4964030;28;20994;-89
2021/04/21 01:55:53;;;;;;;45.40;36.35;;;8.00;72.80;;;;;;4964359;28;20443;-89
2021/04/21 01:58:53;;;;;;;42.67;34.85;;;8.00;73.60;;;;;;4982230;28;20177;-90
2021/04/21 02:01:41;;;;;;;40.67;34.80;;;8.00;73.30;;;;;;4983533;28;20174;-88
2021/04/21 02:04:34;;;;;;;41.45;33.78;;;8.00;73.10;;;;;;4967681;28;20469;-89
2021/04/21 02:07:15;;;;;;;46.50;34.37;;;8.00;73.50;;;;;;4966109;28;20198;-90
2021/04/21 02:10:13;;;;;;;39.43;32.20;;;8.00;72.60;;;;;;4981526;28;20501;-89
2021/04/21 02:12:42;;;;;;;44.67;34.53;;;8.00;73.10;;;;;;4966345;28;20437;-89
2021/04/21 02:15:21;;;;;;;40.88;32.75;;;7.90;73.40;;;;;;4984895;28;20451;-89
2021/04/21 02:17:59;;;;;;;39.90;31.90;;;7.90;73.40;;;;;;4969282;28;20174;-89
2021/04/21 02:20:44;;;;;;;34.80;29.47;;;8.00;72.50;;;;;;4971071;28;20497;-89
2021/04/21 02:23:38;;;;;;;35.72;28.90;;;8.10;72.00;;;;;;4988833;28;20933;-89
2021/04/21 02:26:20;;;;;;;38.47;29.20;;;8.00;71.80;;;;;;4986456;28;20764;-89
2021/04/21 02:29:04;;;;;;;36.38;30.35;;;7.80;71.70;;;;;;4970819;28;20480;-88
2021/04/21 02:31:48;;;;;;;38.60;28.70;;;7.60;73.10;;;;;;4971796;28;20170;-89
2021/04/21 02:34:14;;;;;;;40.78;31.15;;;7.60;73.20;;;;;;4990389;28;20422;-88
2021/04/21 02:36:46;;;;;;;39.77;31.07;;;7.50;73.40;;;;;;4985846;28;20170;-89
2021/04/21 02:39:24;;;;;;;39.70;30.47;;;7.40;73.30;;;;;;4985800;28;20191;-89
2021/04/21 02:42:04;;;;;;;39.03;29.83;;;7.40;73.60;;;;;;4968502;28;20418;-89
2021/04/21 02:44:55;;;;;;;39.53;30.20;;;7.50;73.20;;;;;;4968713;28;20457;-89
2021/04/21 02:47:43;;;;;;;40.30;30.30;;;7.50;72.80;;;;;;4984692;28;20465;-90
2021/04/21 02:50:24;;;;;;;38.42;30.10;;;7.40;73.30;;;;;;4964294;28;20385;-89
2021/04/21 02:52:55;;;;;;;38.28;27.92;;;7.30;73.80;;;;;;4967730;28;20201;-90
2021/04/21 02:56:05;;;;;;;38.20;30.70;;;7.30;74.10;;;;;;4988462;28;20197;-89
2021/04/21 02:58:58;;;;;;;47.77;30.37;;;7.30;74.20;;;;;;4948358;28;20400;-90
2021/04/21 03:01:43;;;;;;;37.60;28.58;;;7.30;74.30;;;;;;4970054;28;20761;-89
2021/04/21 03:04:11;;;;;;;39.27;28.80;;;7.30;74.00;;;;;;4984809;28;20166;-90
2021/04/21 03:06:40;;;;;;;46.17;31.10;;;7.20;74.60;;;;;;4985497;28;20429;-89
2021/04/21 03:09:12;;;;;;;35.30;28.77;;;7.20;73.90;;;;;;4967902;28;20232;-89
2021/04/21 03:11:39;;;;;;;39.38;30.30;;;7.30;74.20;;;;;;4968921;28;20268;-90
2021/04/21 03:14:19;;;;;;;39.90;30.93;;;7.30;74.20;;;;;;4986959;28;20182;-90
2021/04/21 03:16:54;;;;;;;45.17;33.03;;;7.30;74.20;;;;;;4969286;28;20421;-89
2021/04/21 03:19:23;;;;;;;41.67;32.63;;;7.30;74.40;;;;;;4968933;28;20177;-89
2021/04/21 03:22:14;;;;;;;45.40;32.63;;;7.30;74.60;;;;;;4970602;28;20170;-89
2021/04/21 03:24:47;;;;;;;42.38;31.08;;;7.70;76.80;;;;;;4969496;28;20184;-89
2021/04/21 03:27:15;;;;;;;44.42;32.28;;;7.40;77.20;;;;;;4988410;28;20236;-88
2021/04/21 03:29:49;;;;;;;39.70;31.90;;;7.30;76.70;;;;;;4973564;28;20170;-89
2021/04/21 03:32:23;;;;;;;45.50;33.60;;;7.40;75.60;;;;;;4971584;28;20175;-89
2021/04/21 03:34:51;;;;;;;43.10;31.90;;;7.50;73.50;;;;;;4970528;28;20421;-89
2021/04/21 03:37:38;;;;;;;51.83;35.35;;;6.50;73.30;;;;;;4971009;28;20202;-89
2021/04/21 03:40:04;;;;;;;46.35;33.03;;;7.00;76.00;;;;;;4986345;28;20249;-88
2021/04/21 03:42:32;;;;;;;45.47;34.97;;;7.30;78.60;;;;;;4970109;28;20225;-90
2021/04/21 03:45:00;;;;;;;43.60;32.67;;;9.50;83.00;;;;;;4969949;28;20193;-89
2021/04/21 03:47:26;;;;;;;45.53;33.72;;;8.50;77.40;;;;;;4968593;28;21000;-88
2021/04/21 03:49:53;;;;;;;50.40;34.43;;;6.50;75.20;;;;;;4969334;28;20190;-89
2021/04/21 03:52:21;;;;;;;45.35;33.70;;;7.50;75.70;;;;;;4969158;28;20472;-89
2021/04/21 03:54:50;;;;;;;48.10;35.60;;;8.70;75.80;;;;;;4969701;28;20245;-90
2021/04/21 03:57:17;;;;;;;38.58;30.90;;;8.30;76.40;;;;;;4985159;28;20181;-90
2021/04/21 03:59:44;;;;;;;46.27;36.13;;;7.60;75.00;;;;;;4969290;28;20182;-90
2021/04/21 04:02:13;;;;;;;42.97;34.72;;;5.80;73.70;;;;;;4983662;28;21011;-89
2021/04/21 04:04:44;;;;;;;45.90;35.17;;;7.40;76.40;;;;;;4983059;28;20178;-88
2021/04/21 04:07:13;;;;;;;43.90;32.60;;;6.00;72.20;;;;;;4967253;28;20669;-89
2021/04/21 04:09:43;;;;;;;45.67;34.17;;;8.40;75.00;;;;;;4981909;28;20613;-89
2021/04/21 04:12:11;;;;;;;42.28;33.53;;;8.00;75.30;;;;;;4966726;28;20174;-89
2021/04/21 04:14:39;;;;;;;43.73;32.63;;;7.60;76.10;;;;;;4967676;28;20170;-90
2021/04/21 04:17:06;;;;;;;44.93;35.17;;;9.90;76.90;;;;;;4968301;28;20422;-86
2021/04/21 04:19:38;;;;;;;45.90;32.57;;;7.70;74.20;;;;;;4987683;28;20417;-90
2021/04/21 04:22:06;;;;;;;41.83;33.13;;;7.80;72.50;;;;;;4972132;28;20384;-90
2021/04/21 04:24:42;;;;;;;45.95;31.20;;;8.60;77.30;;;;;;4970839;28;20197;-89
2021/04/21 04:27:15;;;;;;;42.75;34.67;;;8.10;72.90;;;;;;4990772;28;20212;-90
2021/04/21 04:29:42;;;;;;;42.57;35.20;;;10.00;75.00;;;;;;4990858;28;20658;-89
2021/04/21 04:32:15;;;;;;;38.15;30.33;;;8.20;74.40;;;;;;4986228;28;20462;-88
2021/04/21 04:34:50;;;;;;;40.33;32.25;;;6.80;70.50;;;;;;4971264;28;20186;-90
2021/04/21 04:37:18;;;;;;;39.22;31.17;;;8.00;72.00;;;;;;4988418;28;20609;-91
2021/04/21 04:39:46;;;;;;;39.63;31.70;;;10.40;74.30;;;;;;4989121;28;20179;-89
2021/04/21 04:42:12;;;;;;;43.10;31.08;;;6.50;70.10;;;;;;4989874;28;20209;-90
2021/04/21 04:44:43;;;;;;;37.90;29.02;;;8.00;73.60;;;;;;4990472;28;20196;-90
2021/04/21 04:47:30;;;;;;;43.20;31.57;;;10.70;76.00;;;;;;4973624;28;20202;-89
2021/04/21 04:50:08;;;;;;;42.92;30.95;;;8.10;71.80;;;;;;4970968;28;20417;-89
2021/04/21 04:52:37;;;;;;;41.95;30.50;;;8.40;74.30;;;;;;4993814;28;20173;-88
2021/04/21 04:55:04;;;;;;;38.63;29.13;;;7.60;73.70;;;;;;4957973;28;20184;-86
2021/04/21 04:57:31;;;;;;;38.27;30.23;;;8.60;74.80;;;;;;4975872;28;20174;-89
2021/04/21 05:00:11;;;;;;;37.00;27.67;;;7.80;71.40;;;;;;4992826;28;20388;-89
2021/04/21 05:02:51;;;;;;;38.72;29.38;;;8.70;75.10;;;;;;4992053;28;20425;-89
2021/04/21 05:05:18;;;;;;;36.65;28.75;;;11.10;75.50;;;;;;4976057;28;20165;-87
2021/04/21 05:08:04;;;;;;;32.37;27.20;;;8.10;71.70;;;;;;4992260;28;20205;-90
2021/04/21 05:10:36;;;;;;;40.85;30.10;;;8.30;71.40;;;;;;4990642;28;20498;-90
2021/04/21 05:13:08;;;;;;;40.33;28.90;;;8.60;72.10;;;;;;4993444;28;20180;-88
2021/04/21 05:15:55;;;;;;;42.95;33.42;;;9.00;72.60;;;;;;4974980;28;20410;-87
2021/04/21 05:18:36;;;;;;;38.42;28.73;;;8.30;71.30;;;;;;4993050;28;20173;-89
2021/04/21 05:21:32;;;;;;;37.00;29.08;;;8.80;72.30;;;;;;4990701;28;20174;-89
2021/04/21 05:24:36;;;;;;;36.58;28.95;;;8.50;71.90;;;;;;4990852;28;20174;-88
2021/04/21 05:27:25;;;;;;;39.67;29.38;;;7.50;84.60;;;;;;4781723;28;10001137;-89
2021/04/21 05:30:30;;;;;;;39.85;31.17;;;9.00;71.50;;;;;;4990176;28;20413;-89
2021/04/21 05:33:04;;;;;;;42.53;32.78;;;9.20;71.90;;;;;;4991253;28;20209;-91
2021/04/21 05:36:01;;;;;;;41.25;32.40;;;7.80;70.20;;;;;;4987195;28;20704;-86
2021/04/21 05:38:51;;;;;;;39.08;29.77;;;8.20;70.50;;;;;;4986482;28;20185;-86
2021/04/21 05:42:02;;;;;;;54.85;34.40;;;8.90;70.70;;;;;;4984713;28;20552;-89
2021/04/21 05:45:05;;;;;;;43.73;33.40;;;8.80;69.80;;;;;;4984831;28;20182;-89
2021/04/21 05:47:53;;;;;;;37.93;29.77;;;9.40;69.90;;;;;;4989739;28;20507;-89
2021/04/21 05:50:24;;;;;;;38.20;30.50;;;9.30;69.10;;;;;;4987377;28;20505;-86
2021/04/21 05:53:25;;;;;;;35.17;30.10;;;10.60;69.50;;;;;;4988287;28;20485;-91
2021/04/21 05:58:42;;;;;;;43.47;30.43;;;9.50;67.60;;;;;;4817706;27;20501;-89
2021/04/21 06:01:18;;;;;;;36.47;29.10;;;10.80;67.70;;;;;;4938707;29;20450;-90
2021/04/21 06:03:53;;;;;;;33.35;27.30;;;11.00;67.80;;;;;;4957671;28;20470;-89
2021/04/21 06:08:55;;;;;;;29.80;25.95;;;9.90;66.70;;;;;;5245817;23;20592;-90
2021/04/21 06:11:30;;;;;;;30.73;26.10;;;11.90;72.30;;;;;;4984440;23;20230;-89
2021/04/21 06:16:35;;;;;;;34.63;27.00;;;10.60;62.80;;;;;;4557698;26;20977;-90
2021/04/21 06:19:07;;;;;;;41.73;30.13;;;10.90;62.00;;;;;;4924404;29;20810;-90
2021/04/21 06:21:38;;;;;;;31.97;28.10;;;11.00;61.00;;;;;;4940423;29;20931;-90
2021/04/21 06:24:19;;;;;;;33.73;28.63;;;11.00;60.40;;;;;;4924004;29;20431;-91
2021/04/21 06:26:45;;;;;;;35.70;28.20;;;13.00;63.90;;;;;;4924657;29;20545;-89
2021/04/21 06:29:11;;;;;;;37.90;29.00;;;11.00;59.90;;;;;;4942468;29;20947;-89
2021/04/21 06:31:42;;;;;;;37.40;30.73;;;9.80;60.30;;;;;;4924331;29;20481;-91
2021/04/21 06:34:08;;;;;;;35.58;31.50;;;11.20;60.20;;;;;;4941588;29;20450;-91
2021/04/21 06:36:38;;;;;;;36.27;31.17;;;10.90;62.30;;;;;;4942786;29;20623;-87
2021/04/21 06:39:05;;;;;;;37.63;31.37;;;10.30;60.10;;;;;;4942068;29;20407;-91
2021/04/21 06:41:30;;;;;;;41.97;33.53;;;10.90;61.80;;;;;;4939396;29;20436;-90
2021/04/21 06:43:57;;;;;;;47.30;34.80;;;12.70;66.60;;;;;;4935907;29;20445;-89
2021/04/21 06:46:24;;;;;;;35.20;30.97;;;12.10;67.40;;;;;;4947560;29;20623;-90
2021/04/21 06:48:56;;;;;;;40.63;31.43;;;12.00;63.90;;;;;;4949008;28;20518;-87
2021/04/21 06:53:57;;;;;;;40.20;32.77;;;12.90;58.40;;;;;;4914100;28;20476;-89
2021/04/21 06:56:32;;;;;;;56.63;36.83;;;17.30;67.00;;;;;;5013062;23;21085;-88
2021/04/21 06:58:59;;;;;;;38.97;34.57;;;16.60;57.40;;;;;;5072624;23;20498;-89
2021/04/21 07:01:26;;;;;;;36.90;33.00;;;17.60;56.90;;;;;;4938556;29;20429;-87
2021/04/21 07:03:53;;;;;;;39.30;34.47;;;17.40;56.60;;;;;;4936841;29;20906;-84
2021/04/21 07:06:21;;;;;;;38.07;33.90;;;16.80;53.60;;;;;;4932830;29;20940;-89
2021/04/21 07:08:47;;;;;;;39.43;35.10;;;17.50;52.20;;;;;;4933007;29;20466;-88
2021/04/21 07:11:13;;;;;;;40.53;35.93;;;16.90;51.50;;;;;;4937841;29;20414;-88
2021/04/21 07:13:46;;;;;;;38.43;34.20;;;17.40;50.20;;;;;;4919700;29;20958;-86
2021/04/21 07:16:22;;;;;;;38.60;34.47;;;17.20;48.30;;;;;;4919874;29;20468;-88
2021/04/21 07:19:00;;;;;;;38.80;34.70;;;18.80;51.60;;;;;;4921651;29;20447;-83
2021/04/21 07:21:29;;;;;;;38.93;35.03;;;18.80;48.00;;;;;;4940298;29;20446;-85
2021/04/21 07:24:00;;;;;;;40.00;35.90;;;19.40;46.70;;;;;;4923719;29;20427;-86
2021/04/21 07:26:33;;;;;;;42.33;38.00;;;19.90;45.80;;;;;;4937718;29;20396;-87
2021/04/21 07:29:00;;;;;;;39.80;35.80;;;20.30;44.30;;;;;;4936718;29;20470;-86
2021/04/21 07:31:26;;;;;;;38.90;35.03;;;20.30;44.50;;;;;;4936443;29;20435;-85
2021/04/21 07:33:52;;;;;;;39.87;35.70;;;20.80;43.30;;;;;;4921903;29;20426;-88
2021/04/21 07:36:23;;;;;;;40.33;36.43;;;21.10;42.60;;;;;;4935111;29;20167;-88
2021/04/21 07:38:53;;;;;;;41.07;37.20;;;21.50;41.90;;;;;;4936508;29;20517;-87
2021/04/21 07:41:51;;;;;;;40.93;37.17;;;21.80;39.80;;;;;;4935892;29;20415;-87
2021/04/21 07:44:33;;;;;;;38.90;35.00;;;22.90;39.90;;;;;;4903832;29;20779;-84
2021/04/21 07:47:05;;;;;;;39.37;35.17;;;21.90;38.50;;;;;;4936231;29;20407;-86
2021/04/21 07:49:32;;;;;;;39.87;35.60;;;21.50;39.00;;;;;;4936079;29;20423;-86
2021/04/21 07:51:58;;;;;;;40.90;36.63;;;21.10;39.50;;;;;;4918135;29;20435;-85
2021/04/21 07:54:26;;;;;;;37.87;33.90;;;21.10;39.40;;;;;;4935253;29;20423;-86
2021/04/21 07:56:54;;;;;;;38.40;34.70;;;21.10;39.60;;;;;;4920130;29;20182;-89
2021/04/21 07:59:39;;;;;;;38.60;34.80;;;20.80;39.80;;;;;;4925981;29;20471;-89
2021/04/21 08:02:34;;;;;;;36.83;33.40;;;21.20;39.50;;;;;;4940014;29;20415;-86
2021/04/21 08:05:05;;;;;;;38.80;35.10;;;22.00;38.20;;;;;;4937246;29;20521;-91
2021/04/21 08:07:55;;;;;;;41.47;37.43;;;21.50;37.10;;;;;;4944183;29;20470;-90
2021/04/21 08:10:24;;;;;;;38.67;34.97;;;21.60;37.60;;;;;;4945129;29;20506;-89
2021/04/21 08:12:56;;;;;;;39.90;35.80;;;22.30;37.70;;;;;;4951212;29;20430;-91
2021/04/21 08:15:35;;;;;;;36.97;33.37;;;22.60;37.20;;;;;;4947772;29;20799;-90
2021/04/21 08:18:11;;;;;;;38.50;34.90;;;23.00;36.80;;;;;;4930138;29;20432;-91
2021/04/21 08:20:55;;;;;;;38.90;35.23;;;22.70;35.60;;;;;;4935292;29;20474;-89
2021/04/21 08:23:21;;;;;;;38.47;34.93;;;22.70;36.00;;;;;;4940874;29;20533;-87
2021/04/21 08:25:48;;;;;;;38.00;34.23;;;23.10;35.80;;;;;;4597059;29;10000164;-87
2021/04/21 08:28:14;;;;;;;36.97;33.60;;;23.30;35.30;;;;;;4937584;29;20569;-88
2021/04/21 08:30:55;;;;;;;37.80;34.30;;;25.60;36.70;;;;;;4937320;29;20506;-87
2021/04/21 08:33:21;;;;;;;37.50;34.10;;;24.80;33.40;;;;;;4937291;29;20178;-88
2021/04/21 08:35:48;;;;;;;38.20;34.70;;;25.10;32.50;;;;;;4936166;28;20473;-88
2021/04/21 08:38:15;;;;;;;37.70;33.93;;;25.20;31.70;;;;;;4958620;29;20436;-87
2021/04/21 08:40:41;;;;;;;39.33;35.30;;;25.10;32.10;;;;;;4958951;29;20755;-88
2021/04/21 08:43:08;;;;;;;37.40;34.30;;;24.60;32.30;;;;;;4942570;29;20464;-90
2021/04/21 08:45:35;;;;;;;37.37;33.47;;;24.40;32.60;;;;;;4942610;29;20262;-90
2021/04/21 08:48:03;;;;;;;36.70;33.20;;;24.70;32.20;;;;;;4941901;29;20481;-88
2021/04/21 08:50:30;;;;;;;36.97;33.60;;;24.30;32.40;;;;;;4942750;29;20422;-90
2021/04/21 08:53:02;;;;;;;35.37;32.37;;;24.10;32.70;;;;;;4944145;29;20528;-89
2021/04/21 08:55:28;;;;;;;38.30;34.80;;;24.40;32.80;;;;;;4942495;29;20444;-87
2021/04/21 08:57:55;;;;;;;36.17;32.80;;;24.70;32.20;;;;;;4616567;29;9999988;-87
2021/04/21 09:00:23;;;;;;;35.43;32.13;;;25.00;31.60;;;;;;4957166;29;20422;-86
2021/04/21 09:02:49;;;;;;;36.67;33.10;;;24.50;32.20;;;;;;4939815;29;20430;-90
2021/04/21 09:05:17;;;;;;;37.23;33.53;;;24.10;32.10;;;;;;4940433;29;20777;-88
2021/04/21 09:07:44;;;;;;;37.00;33.60;;;23.50;33.00;;;;;;4957371;29;20868;-88
2021/04/21 09:10:11;;;;;;;35.53;32.30;;;24.10;33.60;;;;;;4956378;29;20485;-89
2021/04/21 09:12:37;;;;;;;30.70;27.90;;;23.10;32.60;;;;;;4940574;29;20420;-90
2021/04/21 09:15:11;;;;;;;33.40;29.93;;;24.70;33.20;;;;;;4956553;29;20505;-88
2021/04/21 09:17:48;;;;;;;36.33;32.70;;;23.10;32.30;;;;;;4941013;29;20179;-90
2021/04/21 09:20:16;;;;;;;37.10;33.70;;;23.20;32.80;;;;;;4957454;28;20430;-90
2021/04/21 09:23:02;;;;;;;33.03;29.63;;;24.20;33.30;;;;;;4939461;29;20481;-88
2021/04/21 09:25:36;;;;;;;31.80;28.43;;;24.90;31.70;;;;;;4933994;29;20426;-90
2021/04/21 09:28:02;;;;;;;26.73;24.30;;;25.00;28.90;;;;;;4940418;29;20984;-88
2021/04/21 09:30:29;;;;;;;25.20;22.53;;;25.50;28.50;;;;;;4949584;29;20423;-90
2021/04/21 09:33:07;;;;;;;26.13;23.43;;;26.10;27.10;;;;;;4975547;28;20437;-90
2021/04/21 09:35:41;;;;;;;19.90;18.20;;;26.80;27.50;;;;;;5195425;23;20451;-89
2021/04/21 09:38:12;;;;;;;18.27;16.57;;;25.70;27.30;;;;;;4947286;29;20437;-89
2021/04/21 09:40:53;;;;;;;17.30;16.10;;;25.40;26.80;;;;;;4964618;28;20447;-92
2021/04/21 09:43:34;;;;;;;15.83;14.63;;;27.20;26.10;;;;;;4954456;29;20446;-89
2021/04/21 09:48:35;;;;;;;17.90;16.30;;;24.70;26.00;;;;;;5043697;23;20528;-91
2021/04/21 09:51:15;;;;;;;19.20;17.53;;;25.00;27.80;;;;;;4955815;28;20485;-92
2021/04/21 09:53:51;;;;;;;19.20;17.40;;;25.90;27.20;;;;;;4967700;29;20523;-88
2021/04/21 09:56:22;;;;;;;18.93;17.03;;;24.40;27.40;;;;;;4959242;28;20430;-93
2021/04/21 09:58:56;;;;;;;23.23;20.90;;;24.10;26.60;;;;;;4960435;28;20426;-89
2021/04/21 10:01:32;;;;;;;18.93;17.33;;;25.50;28.20;;;;;;4943722;29;20422;-90
2021/04/21 10:04:17;;;;;;;22.77;17.90;;;23.80;26.90;;;;;;4961924;28;20481;-91
2021/04/21 10:06:51;;;;;;;22.53;20.20;;;23.70;26.90;;;;;;4946968;29;20434;-89
2021/04/21 10:09:46;;;;;;;20.10;17.63;;;24.40;27.10;;;;;;4950946;29;20430;-88
2021/04/21 10:12:19;;;;;;;16.70;15.10;;;25.70;26.20;;;;;;4975810;28;20415;-88
2021/04/21 10:14:49;;;;;;;19.80;18.00;;;25.70;26.10;;;;;;4966997;28;20407;-90
2021/04/21 10:17:15;;;;;;;16.30;14.87;;;26.20;26.50;;;;;;4964188;28;20429;-88
2021/04/21 10:19:42;;;;;;;14.97;13.80;;;26.20;25.70;;;;;;4957659;28;20865;-87
2021/04/21 10:22:11;;;;;;;14.60;13.30;;;25.90;25.80;;;;;;4955905;28;20913;-89
2021/04/21 10:24:38;;;;;;;16.00;14.57;;;27.40;25.60;;;;;;4956964;28;20430;-88
2021/04/21 10:27:04;;;;;;;13.87;12.77;;;26.90;25.30;;;;;;4954414;28;20422;-88
2021/04/21 10:29:31;;;;;;;18.27;16.47;;;28.00;25.60;;;;;;4954086;28;20438;-88
2021/04/21 10:32:00;;;;;;;16.23;14.93;;;28.30;24.60;;;;;;4954228;28;20446;-87
2021/04/21 10:34:28;;;;;;;16.67;14.97;;;27.20;24.00;;;;;;4961807;28;20429;-89
2021/04/21 10:36:54;;;;;;;14.87;13.77;;;27.50;25.50;;;;;;4968443;28;20545;-91
2021/04/21 10:39:42;;;;;;;17.73;16.33;;;28.60;26.50;;;;;;4975008;28;20399;-87
2021/04/21 10:42:20;;;;;;;29.33;24.20;;;29.20;26.70;;;;;;4943653;29;20522;-91
2021/04/21 10:52:40;;;;;;;18.33;16.83;;;24.40;26.20;;;;;;5316799;23;20483;-88
2021/04/21 10:55:08;;;;;;;15.10;13.50;;;24.10;27.20;;;;;;4937128;29;20423;-87
2021/04/21 10:57:42;;;;;;;14.70;13.40;;;23.40;27.50;;;;;;4936141;29;20415;-86
2021/04/21 11:00:31;;;;;;;13.97;12.60;;;25.10;27.20;;;;;;4950603;29;20458;-90
2021/04/21 11:03:07;;;;;;;13.57;12.43;;;24.10;26.10;;;;;;4940364;29;20431;-90
2021/04/21 11:05:41;;;;;;;13.07;12.07;;;25.90;27.10;;;;;;4952448;29;20423;-90
2021/04/21 11:08:24;;;;;;;13.40;12.40;;;23.50;25.60;;;;;;4933325;29;20462;-89
2021/04/21 11:11:06;;;;;;;13.67;12.47;;;24.70;25.60;;;;;;4934114;29;20427;-89
2021/04/21 11:13:36;;;;;;;12.03;10.93;;;24.30;26.60;;;;;;4934755;29;20459;-90
2021/04/21 11:16:12;;;;;;;12.90;11.60;;;24.60;27.70;;;;;;4949459;29;20427;-86
2021/04/21 11:18:43;;;;;;;12.90;11.80;;;23.50;25.20;;;;;;4935099;29;20568;-91
2021/04/21 11:21:30;;;;;;;12.30;11.17;;;24.50;26.00;;;;;;4952337;29;20412;-90
2021/04/21 11:24:09;;;;;;;12.23;11.20;;;25.60;28.60;;;;;;4951239;29;20435;-90
2021/04/21 11:26:49;;;;;;;12.07;11.17;;;23.10;27.60;;;;;;4934945;29;20430;-91
2021/04/21 11:29:27;;;;;;;13.40;12.20;;;23.40;26.40;;;;;;4936429;29;20467;-91
2021/04/21 11:31:53;;;;;;;15.50;14.03;;;21.90;26.70;;;;;;4936513;29;20411;-88
2021/04/21 11:34:27;;;;;;;12.30;11.27;;;23.20;27.60;;;;;;5190791;23;20509;-90
2021/04/21 11:37:00;;;;;;;18.70;13.93;;;22.40;26.30;;;;;;4954694;29;20178;-90
2021/04/21 11:39:56;;;;;;;13.63;12.30;;;25.10;29.60;;;;;;4955544;28;20457;-92
2021/04/21 11:42:40;;;;;;;12.97;11.77;;;21.80;26.20;;;;;;4971374;28;20434;-90
2021/04/21 11:45:26;;;;;;;12.50;11.60;;;21.80;26.80;;;;;;4971756;28;20449;-88
2021/04/21 11:48:04;;;;;;;15.13;11.50;;;21.60;27.90;;;;;;4972552;28;20481;-91
2021/04/21 11:50:34;;;;;;;14.07;12.17;;;21.60;28.50;;;;;;4969570;28;20395;-89
2021/04/21 11:53:13;;;;;;;12.50;11.60;;;21.50;27.50;;;;;;4972147;28;20422;-88
2021/04/21 11:55:57;;;;;;;12.30;11.20;;;21.70;27.50;;;;;;4955536;29;20490;-91
2021/04/21 11:58:38;;;;;;;15.00;12.30;;;22.10;28.10;;;;;;4624509;28;9999980;-92
2021/04/21 12:01:13;;;;;;;13.80;12.70;;;23.20;28.60;;;;;;4972979;28;20182;-88
2021/04/21 12:03:50;;;;;;;13.77;12.57;;;21.60;27.60;;;;;;4973800;28;20433;-89
2021/04/21 12:06:21;;;;;;;14.47;13.37;;;21.00;27.60;;;;;;4972425;28;20478;-92
2021/04/21 12:08:56;;;;;;;15.50;14.30;;;21.50;28.80;;;;;;4970127;28;20464;-92
2021/04/21 12:11:34;;;;;;;16.43;14.77;;;22.10;28.90;;;;;;4970826;28;20409;-91
2021/04/21 12:14:00;;;;;;;15.13;13.80;;;21.50;28.40;;;;;;4969641;28;20446;-89
2021/04/21 12:16:28;;;;;;;16.87;15.23;;;21.80;28.40;;;;;;4972551;28;20425;-90
2021/04/21 12:19:01;;;;;;;19.40;14.60;;;21.30;28.80;;;;;;4992637;28;20440;-92
2021/04/21 12:21:39;;;;;;;14.00;12.90;;;22.50;28.60;;;;;;4987669;28;20444;-90
2021/04/21 12:24:07;;;;;;;15.30;13.73;;;23.00;27.40;;;;;;4972598;28;20428;-88
2021/04/21 12:26:35;;;;;;;14.73;13.60;;;24.90;27.20;;;;;;4970979;28;20961;-88
2021/04/21 12:29:14;;;;;;;15.30;14.07;;;26.00;26.40;;;;;;4983028;28;20460;-87
2021/04/21 12:31:40;;;;;;;15.87;14.63;;;27.40;25.80;;;;;;4974831;28;20429;-90
2021/04/21 12:34:24;;;;;;;15.53;14.13;;;27.80;26.30;;;;;;4990695;28;20433;-92
2021/04/21 12:36:51;;;;;;;16.23;14.77;;;27.60;26.10;;;;;;4974166;28;20441;-92
2021/04/21 12:39:19;;;;;;;16.33;14.83;;;26.90;26.60;;;;;;4985785;28;20419;-92
2021/04/21 12:41:54;;;;;;;15.30;13.80;;;25.60;26.50;;;;;;4970043;28;20436;-92
2021/04/21 12:44:29;;;;;;;16.00;14.70;;;24.90;26.50;;;;;;4985382;28;20417;-89
2021/04/21 12:47:02;;;;;;;15.87;14.70;;;24.50;26.90;;;;;;4986398;28;20405;-91
2021/04/21 12:49:42;;;;;;;16.67;15.10;;;21.90;26.40;;;;;;4993691;28;20441;-90
2021/04/21 12:52:10;;;;;;;17.27;15.93;;;22.60;28.00;;;;;;4993149;28;20405;-89
2021/04/21 12:54:43;;;;;;;16.77;15.37;;;22.60;27.90;;;;;;4960704;28;20473;-88
2021/04/21 12:57:11;;;;;;;17.43;15.70;;;21.50;27.10;;;;;;4977604;28;20847;-87
2021/04/21 13:00:06;;;;;;;16.50;15.17;;;22.70;27.70;;;;;;4977086;28;20444;-86
2021/04/21 13:02:52;;;;;;;18.07;16.20;;;22.60;27.90;;;;;;4977768;28;20421;-88
2021/04/21 13:05:22;;;;;;;17.00;15.70;;;22.70;27.90;;;;;;4993122;28;20790;-87
2021/04/21 13:07:48;;;;;;;18.77;17.27;;;22.50;27.80;;;;;;4995124;28;20467;-87
2021/04/21 13:10:16;;;;;;;18.97;17.37;;;22.40;27.90;;;;;;4992780;28;20432;-88
2021/04/21 13:12:42;;;;;;;19.20;16.67;;;22.20;28.00;;;;;;4994069;28;20210;-83
2021/04/21 13:15:20;;;;;;;19.83;18.00;;;22.00;28.00;;;;;;4992860;28;20971;-87
2021/04/21 13:17:47;;;;;;;19.53;17.90;;;21.90;28.50;;;;;;4994402;28;20435;-87
2021/04/21 13:20:18;;;;;;;18.90;17.40;;;21.70;28.20;;;;;;5002048;28;20413;-88
2021/04/21 13:22:56;;;;;;;21.13;19.40;;;21.90;28.20;;;;;;5013952;28;20449;-91
2021/04/21 13:25:22;;;;;;;19.80;18.07;;;21.60;28.30;;;;;;5007576;28;20479;-89
2021/04/21 13:27:48;;;;;;;18.37;16.70;;;21.40;28.60;;;;;;4994662;28;20479;-86